sensor_id;sensor_type;location;lat;lon;timestamp;pressure;altitude;pressure_sealevel;temperature;humidity
18527;BME280;9393;42.158;24.748;2023-03-21T00:00:36;99531.69;;;14.54;56.29
18527;BME280;9393;42.158;24.748;2023-03-21T00:03:41;99527.75;;;14.42;56.58
18527;BME280;9393;42.158;24.748;2023-03-21T00:06:45;99523.63;;;14.55;56.24
18527;BME280;9393;42.158;24.748;2023-03-21T00:09:50;99520.19;;;14.55;56.42
18527;BME280;9393;42.158;24.748;2023-03-21T00:13:06;99507.06;;;14.55;56.47
18527;BME280;9393;42.158;24.748;2023-03-21T00:16:13;99509.59;;;14.40;57.10
18527;BME280;9393;42.158;24.748;2023-03-21T00:19:34;99505.31;;;14.47;56.88
18527;BME280;9393;42.158;24.748;2023-03-21T00:22:40;99513.50;;;14.12;58.12
18527;BME280;9393;42.158;24.748;2023-03-21T00:25:44;99497.44;;;14.23;57.72
18527;BME280;9393;42.158;24.748;2023-03-21T00:28:48;99490.06;;;14.27;57.87
18527;BME280;9393;42.158;24.748;2023-03-21T00:31:56;99491.72;;;14.20;58.22
18527;BME280;9393;42.158;24.748;2023-03-21T00:35:00;99488.59;;;14.40;57.52
18527;BME280;9393;42.158;24.748;2023-03-21T00:38:24;99482.19;;;14.35;57.94
18527;BME280;9393;42.158;24.748;2023-03-21T00:41:28;99479.56;;;14.27;58.86
18527;BME280;9393;42.158;24.748;2023-03-21T00:44:44;99478.25;;;14.39;58.71
18527;BME280;9393;42.158;24.748;2023-03-21T00:47:49;99481.84;;;14.30;59.28
18527;BME280;9393;42.158;24.748;2023-03-21T00:50:55;99477.25;;;14.32;59.32
18527;BME280;9393;42.158;24.748;2023-03-21T00:54:00;99471.22;;;14.23;60.25
18527;BME280;9393;42.158;24.748;2023-03-21T00:57:06;99475.00;;;14.37;60.21
18527;BME280;9393;42.158;24.748;2023-03-21T01:00:13;99465.44;;;14.28;60.70
18527;BME280;9393;42.158;24.748;2023-03-21T01:03:20;99466.59;;;14.25;60.51
18527;BME280;9393;42.158;24.748;2023-03-21T01:06:28;99455.13;;;14.34;60.56
18527;BME280;9393;42.158;24.748;2023-03-21T01:09:32;99449.91;;;14.26;61.52
18527;BME280;9393;42.158;24.748;2023-03-21T01:12:36;99453.63;;;14.32;61.29
18527;BME280;9393;42.158;24.748;2023-03-21T01:15:42;99447.09;;;14.36;61.41
18527;BME280;9393;42.158;24.748;2023-03-21T01:18:48;99445.31;;;14.36;61.42
18527;BME280;9393;42.158;24.748;2023-03-21T01:21:52;99446.94;;;14.21;62.71
18527;BME280;9393;42.158;24.748;2023-03-21T01:24:56;99439.53;;;14.33;61.57
18527;BME280;9393;42.158;24.748;2023-03-21T01:28:20;99433.72;;;14.06;61.88
18527;BME280;9393;42.158;24.748;2023-03-21T01:31:26;99444.19;;;14.06;61.65
18527;BME280;9393;42.158;24.748;2023-03-21T01:34:32;99430.91;;;14.08;61.47
18527;BME280;9393;42.158;24.748;2023-03-21T01:37:36;99427.97;;;14.03;62.02
18527;BME280;9393;42.158;24.748;2023-03-21T01:40:44;99424.34;;;14.04;62.43
18527;BME280;9393;42.158;24.748;2023-03-21T01:43:59;99416.34;;;13.97;62.65
18527;BME280;9393;42.158;24.748;2023-03-21T01:47:15;99412.75;;;13.74;63.22
18527;BME280;9393;42.158;24.748;2023-03-21T01:50:29;99409.31;;;13.82;62.95
18527;BME280;9393;42.158;24.748;2023-03-21T01:53:47;99404.91;;;13.74;63.22
18527;BME280;9393;42.158;24.748;2023-03-21T01:56:54;99400.81;;;13.72;63.36
18527;BME280;9393;42.158;24.748;2023-03-21T02:00:02;99384.09;;;13.48;64.62
18527;BME280;9393;42.158;24.748;2023-03-21T02:03:29;99387.88;;;13.54;64.74
18527;BME280;9393;42.158;24.748;2023-03-21T02:07:07;99385.72;;;13.41;65.42
18527;BME280;9393;42.158;24.748;2023-03-21T02:10:18;99384.59;;;13.44;65.49
18527;BME280;9393;42.158;24.748;2023-03-21T02:13:26;99395.25;;;13.66;64.35
18527;BME280;9393;42.158;24.748;2023-03-21T02:16:40;99388.50;;;13.80;63.91
18527;BME280;9393;42.158;24.748;2023-03-21T02:20:26;99393.91;;;13.87;63.78
18527;BME280;9393;42.158;24.748;2023-03-21T02:24:16;99386.56;;;13.66;64.56
18527;BME280;9393;42.158;24.748;2023-03-21T02:27:28;99374.78;;;13.30;66.26
18527;BME280;9393;42.158;24.748;2023-03-21T02:30:44;99388.81;;;13.21;66.97
18527;BME280;9393;42.158;24.748;2023-03-21T02:34:26;99393.28;;;13.44;66.31
18527;BME280;9393;42.158;24.748;2023-03-21T02:37:40;99402.75;;;13.13;67.95
18527;BME280;9393;42.158;24.748;2023-03-21T02:40:57;99409.47;;;13.24;67.82
18527;BME280;9393;42.158;24.748;2023-03-21T02:44:18;99403.75;;;13.20;68.29
18527;BME280;9393;42.158;24.748;2023-03-21T02:47:27;99406.69;;;13.25;68.32
18527;BME280;9393;42.158;24.748;2023-03-21T02:50:36;99408.69;;;13.47;67.15
18527;BME280;9393;42.158;24.748;2023-03-21T02:53:44;99419.81;;;13.33;68.26
18527;BME280;9393;42.158;24.748;2023-03-21T02:56:58;99417.66;;;13.29;68.22
18527;BME280;9393;42.158;24.748;2023-03-21T03:00:06;99416.03;;;13.36;67.93
18527;BME280;9393;42.158;24.748;2023-03-21T03:03:20;99419.25;;;13.13;68.50
18527;BME280;9393;42.158;24.748;2023-03-21T03:06:45;99423.06;;;13.35;67.86
18527;BME280;9393;42.158;24.748;2023-03-21T03:10:07;99408.56;;;13.07;69.07
18527;BME280;9393;42.158;24.748;2023-03-21T03:13:24;99420.19;;;13.04;69.11
18527;BME280;9393;42.158;24.748;2023-03-21T03:16:38;99424.22;;;13.33;67.67
18527;BME280;9393;42.158;24.748;2023-03-21T03:20:01;99426.47;;;13.28;68.02
18527;BME280;9393;42.158;24.748;2023-03-21T03:23:24;99433.56;;;13.27;67.88
18527;BME280;9393;42.158;24.748;2023-03-21T03:26:33;99430.25;;;13.41;67.38
18527;BME280;9393;42.158;24.748;2023-03-21T03:29:41;99432.41;;;13.46;66.80
18527;BME280;9393;42.158;24.748;2023-03-21T03:32:55;99435.88;;;13.54;66.15
18527;BME280;9393;42.158;24.748;2023-03-21T03:36:02;99429.78;;;13.62;66.17
18527;BME280;9393;42.158;24.748;2023-03-21T03:39:12;99427.00;;;13.63;65.51
18527;BME280;9393;42.158;24.748;2023-03-21T03:42:28;99432.75;;;13.67;65.00
18527;BME280;9393;42.158;24.748;2023-03-21T03:45:45;99417.34;;;13.56;64.73
18527;BME280;9393;42.158;24.748;2023-03-21T03:48:54;99410.16;;;13.50;64.83
18527;BME280;9393;42.158;24.748;2023-03-21T03:52:03;99414.13;;;12.96;66.81
18527;BME280;9393;42.158;24.748;2023-03-21T03:55:18;99403.75;;;13.20;65.34
18527;BME280;9393;42.158;24.748;2023-03-21T03:58:28;99411.25;;;13.31;64.50
18527;BME280;9393;42.158;24.748;2023-03-21T04:01:48;99407.00;;;13.22;64.46
18527;BME280;9393;42.158;24.748;2023-03-21T04:04:53;99408.00;;;12.71;66.51
18527;BME280;9393;42.158;24.748;2023-03-21T04:07:59;99418.13;;;12.66;66.25
18527;BME280;9393;42.158;24.748;2023-03-21T04:11:13;99421.69;;;12.23;68.14
18527;BME280;9393;42.158;24.748;2023-03-21T04:14:24;99426.53;;;12.18;68.26
18527;BME280;9393;42.158;24.748;2023-03-21T04:17:40;99427.75;;;12.57;66.51
18527;BME280;9393;42.158;24.748;2023-03-21T04:20:44;99427.69;;;12.15;68.14
18527;BME280;9393;42.158;24.748;2023-03-21T04:23:50;99419.75;;;12.67;66.20
18527;BME280;9393;42.158;24.748;2023-03-21T04:26:56;99431.56;;;12.71;65.92
18527;BME280;9393;42.158;24.748;2023-03-21T04:30:43;99422.16;;;13.02;64.33
18527;BME280;9393;42.158;24.748;2023-03-21T04:34:05;99434.50;;;12.76;65.41
18527;BME280;9393;42.158;24.748;2023-03-21T04:37:14;99432.88;;;12.83;65.47
18527;BME280;9393;42.158;24.748;2023-03-21T04:40:18;99432.56;;;12.78;65.56
18527;BME280;9393;42.158;24.748;2023-03-21T04:43:23;99434.19;;;12.79;65.97
18527;BME280;9393;42.158;24.748;2023-03-21T04:46:28;99431.81;;;12.60;66.67
18527;BME280;9393;42.158;24.748;2023-03-21T04:49:32;99442.84;;;12.72;66.44
18527;BME280;9393;42.158;24.748;2023-03-21T04:52:37;99435.38;;;12.85;66.02
18527;BME280;9393;42.158;24.748;2023-03-21T04:55:41;99447.66;;;12.92;65.92
18527;BME280;9393;42.158;24.748;2023-03-21T04:58:45;99453.09;;;12.99;65.80
18527;BME280;9393;42.158;24.748;2023-03-21T05:01:51;99456.53;;;13.07;65.83
18527;BME280;9393;42.158;24.748;2023-03-21T05:04:58;99453.00;;;13.17;65.67
18527;BME280;9393;42.158;24.748;2023-03-21T05:08:02;99454.63;;;13.09;65.75
18527;BME280;9393;42.158;24.748;2023-03-21T05:11:06;99457.41;;;13.16;65.75
18527;BME280;9393;42.158;24.748;2023-03-21T05:14:13;99457.06;;;13.11;66.24
18527;BME280;9393;42.158;24.748;2023-03-21T05:17:19;99455.94;;;13.22;65.64
18527;BME280;9393;42.158;24.748;2023-03-21T05:20:26;99451.56;;;12.88;67.14
18527;BME280;9393;42.158;24.748;2023-03-21T05:23:30;99449.16;;;13.03;66.66
18527;BME280;9393;42.158;24.748;2023-03-21T05:26:40;99445.81;;;13.27;65.72
18527;BME280;9393;42.158;24.748;2023-03-21T05:29:50;99444.50;;;13.23;66.62
18527;BME280;9393;42.158;24.748;2023-03-21T05:32:56;99438.91;;;13.09;67.64
18527;BME280;9393;42.158;24.748;2023-03-21T05:36:01;99434.03;;;13.23;67.34
18527;BME280;9393;42.158;24.748;2023-03-21T05:39:06;99431.69;;;13.11;67.82
18527;BME280;9393;42.158;24.748;2023-03-21T05:42:15;99441.06;;;12.80;69.11
18527;BME280;9393;42.158;24.748;2023-03-21T05:45:20;99437.13;;;12.76;69.61
18527;BME280;9393;42.158;24.748;2023-03-21T05:48:27;99446.28;;;12.72;69.80
18527;BME280;9393;42.158;24.748;2023-03-21T05:51:51;99441.16;;;12.62;70.51
18527;BME280;9393;42.158;24.748;2023-03-21T05:54:55;99447.13;;;12.81;69.80
18527;BME280;9393;42.158;24.748;2023-03-21T05:58:01;99448.72;;;13.15;68.63
18527;BME280;9393;42.158;24.748;2023-03-21T06:01:06;99447.69;;;13.08;68.90
18527;BME280;9393;42.158;24.748;2023-03-21T06:04:15;99442.22;;;13.36;67.89
18527;BME280;9393;42.158;24.748;2023-03-21T06:07:19;99448.72;;;13.15;68.69
18527;BME280;9393;42.158;24.748;2023-03-21T06:10:24;99446.81;;;13.34;68.38
18527;BME280;9393;42.158;24.748;2023-03-21T06:13:28;99444.69;;;13.70;67.07
18527;BME280;9393;42.158;24.748;2023-03-21T06:16:34;99459.13;;;13.74;67.14
18527;BME280;9393;42.158;24.748;2023-03-21T06:19:40;99452.88;;;13.83;66.97
18527;BME280;9393;42.158;24.748;2023-03-21T06:22:51;99439.59;;;14.00;66.21
18527;BME280;9393;42.158;24.748;2023-03-21T06:25:55;99449.44;;;13.90;66.67
18527;BME280;9393;42.158;24.748;2023-03-21T06:29:00;99446.16;;;13.96;66.73
18527;BME280;9393;42.158;24.748;2023-03-21T06:32:05;99448.28;;;13.93;67.11
18527;BME280;9393;42.158;24.748;2023-03-21T06:35:12;99450.41;;;13.97;66.80
18527;BME280;9393;42.158;24.748;2023-03-21T06:38:17;99453.88;;;13.65;68.29
18527;BME280;9393;42.158;24.748;2023-03-21T06:41:21;99460.72;;;13.58;68.67
18527;BME280;9393;42.158;24.748;2023-03-21T06:44:38;99466.31;;;13.80;67.91
18527;BME280;9393;42.158;24.748;2023-03-21T06:47:47;99465.50;;;13.87;68.18
18527;BME280;9393;42.158;24.748;2023-03-21T06:51:06;99465.81;;;13.76;68.88
18527;BME280;9393;42.158;24.748;2023-03-21T06:54:15;99454.00;;;13.96;68.08
18527;BME280;9393;42.158;24.748;2023-03-21T06:57:31;99455.34;;;13.60;69.53
18527;BME280;9393;42.158;24.748;2023-03-21T07:00:35;99452.41;;;13.87;68.85
18527;BME280;9393;42.158;24.748;2023-03-21T07:03:40;99455.81;;;14.20;67.37
18527;BME280;9393;42.158;24.748;2023-03-21T07:06:46;99467.78;;;14.14;67.79
18527;BME280;9393;42.158;24.748;2023-03-21T07:09:51;99464.84;;;14.09;68.10
18527;BME280;9393;42.158;24.748;2023-03-21T07:12:57;99459.91;;;14.14;68.16
18527;BME280;9393;42.158;24.748;2023-03-21T07:16:10;99462.69;;;14.37;67.30
18527;BME280;9393;42.158;24.748;2023-03-21T07:19:14;99464.63;;;14.90;65.44
18527;BME280;9393;42.158;24.748;2023-03-21T07:22:20;99467.00;;;14.77;66.02
18527;BME280;9393;42.158;24.748;2023-03-21T07:25:24;99463.31;;;14.86;66.01
18527;BME280;9393;42.158;24.748;2023-03-21T07:28:29;99461.19;;;15.21;64.41
18527;BME280;9393;42.158;24.748;2023-03-21T07:31:33;99454.47;;;15.49;63.71
18527;BME280;9393;42.158;24.748;2023-03-21T07:34:38;99459.72;;;15.94;62.17
18527;BME280;9393;42.158;24.748;2023-03-21T07:37:44;99454.91;;;15.98;61.73
18527;BME280;9393;42.158;24.748;2023-03-21T07:40:51;99458.19;;;16.14;61.34
18527;BME280;9393;42.158;24.748;2023-03-21T07:43:56;99450.31;;;16.14;61.34
18527;BME280;9393;42.158;24.748;2023-03-21T07:47:07;99457.00;;;16.02;61.26
18527;BME280;9393;42.158;24.748;2023-03-21T07:50:11;99449.06;;;15.20;63.82
18527;BME280;9393;42.158;24.748;2023-03-21T07:53:17;99438.03;;;15.92;61.73
18527;BME280;9393;42.158;24.748;2023-03-21T07:56:21;99454.59;;;16.45;60.38
18527;BME280;9393;42.158;24.748;2023-03-21T07:59:26;99438.56;;;16.69;59.71
18527;BME280;9393;42.158;24.748;2023-03-21T08:02:30;99436.34;;;17.02;58.93
18527;BME280;9393;42.158;24.748;2023-03-21T08:05:36;99428.31;;;17.10;58.48
18527;BME280;9393;42.158;24.748;2023-03-21T08:08:42;99437.63;;;16.91;58.29
18527;BME280;9393;42.158;24.748;2023-03-21T08:11:46;99427.03;;;16.41;59.73
18527;BME280;9393;42.158;24.748;2023-03-21T08:14:50;99430.47;;;16.71;58.69
18527;BME280;9393;42.158;24.748;2023-03-21T08:17:54;99434.72;;;16.86;57.74
18527;BME280;9393;42.158;24.748;2023-03-21T08:20:59;99436.03;;;17.11;56.82
18527;BME280;9393;42.158;24.748;2023-03-21T08:24:04;99433.25;;;16.98;56.74
18527;BME280;9393;42.158;24.748;2023-03-21T08:27:09;99435.22;;;16.75;57.55
18527;BME280;9393;42.158;24.748;2023-03-21T08:30:16;99436.25;;;16.51;57.67
18527;BME280;9393;42.158;24.748;2023-03-21T08:33:21;99430.19;;;16.80;57.05
18527;BME280;9393;42.158;24.748;2023-03-21T08:36:25;99434.91;;;16.99;57.20
18527;BME280;9393;42.158;24.748;2023-03-21T08:39:31;99429.28;;;17.24;56.76
18527;BME280;9393;42.158;24.748;2023-03-21T08:42:35;99425.75;;;17.16;56.80
18527;BME280;9393;42.158;24.748;2023-03-21T08:45:40;99422.00;;;17.26;56.45
18527;BME280;9393;42.158;24.748;2023-03-21T08:48:44;99426.88;;;17.29;56.27
18527;BME280;9393;42.158;24.748;2023-03-21T08:51:48;99425.72;;;16.95;56.90
18527;BME280;9393;42.158;24.748;2023-03-21T08:54:54;99418.91;;;17.22;56.19
18527;BME280;9393;42.158;24.748;2023-03-21T08:57:58;99418.81;;;16.94;56.93
18527;BME280;9393;42.158;24.748;2023-03-21T09:01:03;99423.41;;;16.71;57.36
18527;BME280;9393;42.158;24.748;2023-03-21T09:04:08;99424.47;;;16.33;58.43
18527;BME280;9393;42.158;24.748;2023-03-21T09:07:13;99420.31;;;16.67;57.70
18527;BME280;9393;42.158;24.748;2023-03-21T09:10:21;99412.66;;;16.87;56.98
18527;BME280;9393;42.158;24.748;2023-03-21T09:13:26;99418.91;;;16.86;56.85
18527;BME280;9393;42.158;24.748;2023-03-21T09:16:30;99417.28;;;16.85;56.96
18527;BME280;9393;42.158;24.748;2023-03-21T09:19:35;99416.41;;;16.78;57.03
18527;BME280;9393;42.158;24.748;2023-03-21T09:22:40;99399.66;;;17.43;55.53
18527;BME280;9393;42.158;24.748;2023-03-21T09:25:46;99404.44;;;17.33;55.74
18527;BME280;9393;42.158;24.748;2023-03-21T09:28:50;99405.44;;;17.32;56.20
18527;BME280;9393;42.158;24.748;2023-03-21T09:31:54;99404.50;;;17.82;54.35
18527;BME280;9393;42.158;24.748;2023-03-21T09:34:59;99398.13;;;18.04;54.02
18527;BME280;9393;42.158;24.748;2023-03-21T09:38:03;99399.00;;;18.11;53.94
18527;BME280;9393;42.158;24.748;2023-03-21T09:41:29;99402.19;;;18.34;52.64
18527;BME280;9393;42.158;24.748;2023-03-21T09:44:46;99397.16;;;18.39;52.48
18527;BME280;9393;42.158;24.748;2023-03-21T09:47:54;99394.66;;;18.65;52.07
18527;BME280;9393;42.158;24.748;2023-03-21T09:51:00;99392.53;;;18.89;51.45
18527;BME280;9393;42.158;24.748;2023-03-21T09:54:10;99385.81;;;18.93;51.12
18527;BME280;9393;42.158;24.748;2023-03-21T09:57:24;99385.41;;;18.89;51.61
18527;BME280;9393;42.158;24.748;2023-03-21T10:00:36;99388.13;;;19.22;50.62
18527;BME280;9393;42.158;24.748;2023-03-21T10:03:41;99382.09;;;19.48;49.59
18527;BME280;9393;42.158;24.748;2023-03-21T10:06:52;99375.31;;;19.32;50.30
18527;BME280;9393;42.158;24.748;2023-03-21T10:09:59;99370.44;;;19.36;49.60
18527;BME280;9393;42.158;24.748;2023-03-21T10:13:13;99374.66;;;18.97;50.74
18527;BME280;9393;42.158;24.748;2023-03-21T10:16:22;99376.72;;;19.15;50.70
18527;BME280;9393;42.158;24.748;2023-03-21T10:19:29;99367.97;;;19.14;50.44
18527;BME280;9393;42.158;24.748;2023-03-21T10:22:33;99368.38;;;19.11;50.29
18527;BME280;9393;42.158;24.748;2023-03-21T10:25:43;99367.22;;;19.34;49.85
18527;BME280;9393;42.158;24.748;2023-03-21T10:28:49;99367.38;;;19.26;49.77
18527;BME280;9393;42.158;24.748;2023-03-21T10:31:54;99367.16;;;19.21;49.67
18527;BME280;9393;42.158;24.748;2023-03-21T10:35:00;99359.72;;;19.57;49.46
18527;BME280;9393;42.158;24.748;2023-03-21T10:38:10;99349.53;;;19.41;49.31
18527;BME280;9393;42.158;24.748;2023-03-21T10:41:18;99347.91;;;19.53;49.52
18527;BME280;9393;42.158;24.748;2023-03-21T10:44:28;99344.25;;;19.41;49.46
18527;BME280;9393;42.158;24.748;2023-03-21T10:47:33;99346.25;;;19.32;48.79
18527;BME280;9393;42.158;24.748;2023-03-21T10:50:39;99330.81;;;19.55;48.59
18527;BME280;9393;42.158;24.748;2023-03-21T10:53:46;99315.97;;;19.48;48.91
18527;BME280;9393;42.158;24.748;2023-03-21T10:56:56;99317.34;;;19.31;49.23
18527;BME280;9393;42.158;24.748;2023-03-21T11:00:03;99314.09;;;19.81;48.29
18527;BME280;9393;42.158;24.748;2023-03-21T11:03:20;99310.25;;;19.64;48.59
18527;BME280;9393;42.158;24.748;2023-03-21T11:06:30;99304.75;;;19.72;47.53
18527;BME280;9393;42.158;24.748;2023-03-21T11:09:46;99307.97;;;19.87;47.25
18527;BME280;9393;42.158;24.748;2023-03-21T11:12:56;99290.50;;;19.73;47.62
18527;BME280;9393;42.158;24.748;2023-03-21T11:16:06;99281.97;;;19.71;46.89
18527;BME280;9393;42.158;24.748;2023-03-21T11:19:13;99269.28;;;19.86;46.47
18527;BME280;9393;42.158;24.748;2023-03-21T11:22:20;99256.03;;;20.06;46.13
18527;BME280;9393;42.158;24.748;2023-03-21T11:25:31;99261.44;;;20.17;45.72
18527;BME280;9393;42.158;24.748;2023-03-21T11:28:40;99261.84;;;19.37;47.94
18527;BME280;9393;42.158;24.748;2023-03-21T11:31:47;99264.28;;;19.45;48.80
18527;BME280;9393;42.158;24.748;2023-03-21T11:34:56;99258.78;;;19.53;48.37
18527;BME280;9393;42.158;24.748;2023-03-21T11:38:02;99254.75;;;19.51;48.33
18527;BME280;9393;42.158;24.748;2023-03-21T11:41:06;99252.09;;;19.44;48.68
18527;BME280;9393;42.158;24.748;2023-03-21T11:44:28;99243.53;;;19.49;48.42
18527;BME280;9393;42.158;24.748;2023-03-21T11:47:34;99244.53;;;19.28;49.00
18527;BME280;9393;42.158;24.748;2023-03-21T11:50:41;99230.28;;;19.69;48.30
18527;BME280;9393;42.158;24.748;2023-03-21T11:53:48;99225.84;;;19.49;49.25
18527;BME280;9393;42.158;24.748;2023-03-21T11:56:59;99231.50;;;19.59;49.72
18527;BME280;9393;42.158;24.748;2023-03-21T12:00:13;99227.47;;;19.50;49.60
18527;BME280;9393;42.158;24.748;2023-03-21T12:03:36;99231.75;;;19.45;49.82
18527;BME280;9393;42.158;24.748;2023-03-21T12:06:52;99221.97;;;19.52;49.75
18527;BME280;9393;42.158;24.748;2023-03-21T12:10:12;99219.13;;;19.21;50.65
18527;BME280;9393;42.158;24.748;2023-03-21T12:13:28;99211.13;;;19.73;49.42
18527;BME280;9393;42.158;24.748;2023-03-21T12:16:45;99206.50;;;20.13;48.88
18527;BME280;9393;42.158;24.748;2023-03-21T12:20:05;99202.13;;;19.87;49.67
18527;BME280;9393;42.158;24.748;2023-03-21T12:23:27;99192.91;;;19.96;49.74
18527;BME280;9393;42.158;24.748;2023-03-21T12:26:40;99193.81;;;19.77;50.16
18527;BME280;9393;42.158;24.748;2023-03-21T12:30:00;99196.31;;;19.59;50.95
18527;BME280;9393;42.158;24.748;2023-03-21T12:33:27;99185.94;;;19.64;50.99
18527;BME280;9393;42.158;24.748;2023-03-21T12:36:55;99186.38;;;19.35;51.82
18527;BME280;9393;42.158;24.748;2023-03-21T12:40:08;99167.88;;;19.22;52.02
18527;BME280;9393;42.158;24.748;2023-03-21T12:43:26;99162.63;;;19.15;52.34
18527;BME280;9393;42.158;24.748;2023-03-21T12:46:36;99166.50;;;18.80;52.79
18527;BME280;9393;42.158;24.748;2023-03-21T12:49:47;99167.50;;;18.59;53.55
18527;BME280;9393;42.158;24.748;2023-03-21T12:53:03;99157.06;;;18.31;54.82
18527;BME280;9393;42.158;24.748;2023-03-21T12:56:14;99158.97;;;18.77;53.54
18527;BME280;9393;42.158;24.748;2023-03-21T12:59:28;99176.88;;;18.81;53.82
18527;BME280;9393;42.158;24.748;2023-03-21T13:02:37;99166.09;;;18.89;54.01
18527;BME280;9393;42.158;24.748;2023-03-21T13:05:45;99162.44;;;18.84;54.09
18527;BME280;9393;42.158;24.748;2023-03-21T13:08:56;99160.41;;;18.92;54.14
18527;BME280;9393;42.158;24.748;2023-03-21T13:12:11;99158.59;;;18.99;53.95
18527;BME280;9393;42.158;24.748;2023-03-21T13:15:34;99149.22;;;18.84;54.33
18527;BME280;9393;42.158;24.748;2023-03-21T13:18:49;99149.63;;;18.74;54.84
18527;BME280;9393;42.158;24.748;2023-03-21T13:22:05;99154.53;;;18.64;55.48
18527;BME280;9393;42.158;24.748;2023-03-21T13:25:17;99151.06;;;18.70;55.25
18527;BME280;9393;42.158;24.748;2023-03-21T13:28:25;99147.41;;;18.84;54.79
18527;BME280;9393;42.158;24.748;2023-03-21T13:31:30;99143.53;;;18.74;55.95
18527;BME280;9393;42.158;24.748;2023-03-21T13:34:56;99135.19;;;18.83;55.62
18527;BME280;9393;42.158;24.748;2023-03-21T13:38:02;99127.66;;;18.93;55.38
18527;BME280;9393;42.158;24.748;2023-03-21T13:41:13;99125.88;;;18.67;56.77
18527;BME280;9393;42.158;24.748;2023-03-21T13:44:23;99114.25;;;18.42;57.48
18527;BME280;9393;42.158;24.748;2023-03-21T13:47:37;99115.09;;;18.69;56.84
18527;BME280;9393;42.158;24.748;2023-03-21T13:50:53;99111.44;;;18.57;56.87
18527;BME280;9393;42.158;24.748;2023-03-21T13:54:13;99112.84;;;18.66;56.47
18527;BME280;9393;42.158;24.748;2023-03-21T13:57:35;99106.56;;;18.54;56.77
18527;BME280;9393;42.158;24.748;2023-03-21T14:00:40;99100.44;;;18.47;56.89
18527;BME280;9393;42.158;24.748;2023-03-21T14:03:45;99103.94;;;18.60;56.64
18527;BME280;9393;42.158;24.748;2023-03-21T14:06:54;99086.03;;;18.49;57.15
18527;BME280;9393;42.158;24.748;2023-03-21T14:10:00;99088.88;;;18.48;57.11
18527;BME280;9393;42.158;24.748;2023-03-21T14:13:10;99092.13;;;18.37;57.00
18527;BME280;9393;42.158;24.748;2023-03-21T14:16:19;99094.53;;;18.38;57.45
18527;BME280;9393;42.158;24.748;2023-03-21T14:19:28;99099.81;;;18.32;57.51
18527;BME280;9393;42.158;24.748;2023-03-21T14:22:33;99101.44;;;18.46;57.10
18527;BME280;9393;42.158;24.748;2023-03-21T14:25:38;99099.44;;;18.48;57.05
18527;BME280;9393;42.158;24.748;2023-03-21T14:28:51;99102.69;;;18.43;56.88
18527;BME280;9393;42.158;24.748;2023-03-21T14:31:56;99091.91;;;18.45;56.68
18527;BME280;9393;42.158;24.748;2023-03-21T14:35:02;99089.25;;;18.38;57.16
18527;BME280;9393;42.158;24.748;2023-03-21T14:38:07;99084.19;;;18.50;56.81
18527;BME280;9393;42.158;24.748;2023-03-21T14:41:21;99079.72;;;18.37;57.11
18527;BME280;9393;42.158;24.748;2023-03-21T14:44:32;99081.75;;;18.29;57.09
18527;BME280;9393;42.158;24.748;2023-03-21T14:47:57;99094.94;;;18.35;57.28
18527;BME280;9393;42.158;24.748;2023-03-21T14:51:02;99075.66;;;18.35;57.38
18527;BME280;9393;42.158;24.748;2023-03-21T14:54:13;99084.19;;;18.24;57.79
18527;BME280;9393;42.158;24.748;2023-03-21T14:57:20;99080.50;;;18.11;58.48
18527;BME280;9393;42.158;24.748;2023-03-21T15:00:29;99072.34;;;18.00;59.02
18527;BME280;9393;42.158;24.748;2023-03-21T15:03:34;99063.25;;;18.02;59.19
18527;BME280;9393;42.158;24.748;2023-03-21T15:06:52;99072.41;;;18.06;59.20
18527;BME280;9393;42.158;24.748;2023-03-21T15:09:58;99078.28;;;18.08;59.19
18527;BME280;9393;42.158;24.748;2023-03-21T15:13:13;99093.69;;;18.05;59.22
18527;BME280;9393;42.158;24.748;2023-03-21T15:16:21;99098.41;;;18.23;58.99
18527;BME280;9393;42.158;24.748;2023-03-21T15:19:31;99104.91;;;18.33;58.26
18527;BME280;9393;42.158;24.748;2023-03-21T15:22:37;99084.19;;;18.37;58.67
18527;BME280;9393;42.158;24.748;2023-03-21T15:25:43;99078.69;;;18.32;59.04
18527;BME280;9393;42.158;24.748;2023-03-21T15:28:49;99084.78;;;18.39;58.17
18527;BME280;9393;42.158;24.748;2023-03-21T15:32:03;99096.75;;;18.22;58.74
18527;BME280;9393;42.158;24.748;2023-03-21T15:35:14;99098.59;;;18.28;58.46
18527;BME280;9393;42.158;24.748;2023-03-21T15:38:22;99093.53;;;18.33;58.39
18527;BME280;9393;42.158;24.748;2023-03-21T15:41:29;99095.94;;;18.28;58.66
18527;BME280;9393;42.158;24.748;2023-03-21T15:44:34;99109.72;;;18.03;59.58
18527;BME280;9393;42.158;24.748;2023-03-21T15:47:41;99105.31;;;18.24;58.89
18527;BME280;9393;42.158;24.748;2023-03-21T15:50:49;99109.13;;;18.21;59.39
18527;BME280;9393;42.158;24.748;2023-03-21T15:53:55;99095.94;;;18.14;59.59
18527;BME280;9393;42.158;24.748;2023-03-21T15:57:01;99099.97;;;17.97;60.55
18527;BME280;9393;42.158;24.748;2023-03-21T16:00:17;99093.47;;;18.00;60.22
18527;BME280;9393;42.158;24.748;2023-03-21T16:03:27;99087.97;;;17.88;60.72
18527;BME280;9393;42.158;24.748;2023-03-21T16:06:35;99089.34;;;17.71;61.68
18527;BME280;9393;42.158;24.748;2023-03-21T16:09:41;99094.81;;;17.76;61.34
18527;BME280;9393;42.158;24.748;2023-03-21T16:12:46;99097.25;;;17.64;61.75
18527;BME280;9393;42.158;24.748;2023-03-21T16:15:50;99100.09;;;17.70;61.45
18527;BME280;9393;42.158;24.748;2023-03-21T16:18:57;99103.38;;;17.78;61.58
18527;BME280;9393;42.158;24.748;2023-03-21T16:22:04;99106.97;;;17.64;62.55
18527;BME280;9393;42.158;24.748;2023-03-21T16:25:11;99102.91;;;17.61;62.43
18527;BME280;9393;42.158;24.748;2023-03-21T16:28:16;99102.50;;;17.64;62.38
18527;BME280;9393;42.158;24.748;2023-03-21T16:31:22;99114.25;;;17.62;62.52
18527;BME280;9393;42.158;24.748;2023-03-21T16:34:28;99117.91;;;17.61;62.62
18527;BME280;9393;42.158;24.748;2023-03-21T16:37:33;99106.97;;;17.64;62.55
18527;BME280;9393;42.158;24.748;2023-03-21T16:40:40;99107.38;;;17.61;62.38
18527;BME280;9393;42.158;24.748;2023-03-21T16:43:45;99097.66;;;17.68;62.19